Impacts TAF Board INFO
FOR SITUATIONAL AWARENESS. NOT TO BE USED FOR FLIGHT PLANNING PURPOSES.
IDs:

KDEN - Denver Intl, CO, US

Issued at 0104 UTC 13 Dec 2017
Updated at 0124 UTC 13 Dec 2017
Potential Impact None Slight Moderate High
Time0053Z 13/02Z 13/03Z 13/04Z 13/05Z 13/06Z 13/07Z 13/08Z 13/09Z 13/10Z 13/11Z 13/12Z 13/13Z 13/14Z>>
Type OBS PRVL PRVL PRVL PRVL PRVL PRVL PRVL PRVL PRVL PRVL PRVL PRVL PRVL
VIS 10 >6 >6 >6 >6 >6 >6 >6 >6 >6 >6 >6 >6 >6
CIG -- -- -- -- -- -- -- -- -- -- -- -- -- --
Cover FEW FEW SCT SCT SCT SCT SCT SCT SCT SCT SCT SCT SCT SCT
FltCat VFR VFR VFR VFR VFR VFR VFR VFR VFR VFR VFR VFR VFR VFR
WX -- -- -- -- -- -- -- -- -- -- -- -- -- --
WDir 260 240 210 210 210 210 210 210 210 210 210 210 210 210
WSpd 4 8 10 10 10 10 10 10 10 10 10 10 10 10
WGst -- -- -- -- -- -- -- -- -- -- -- -- -- --

Raw TAF
KDEN 130104Z 1301/1406 24008KT P6SM FEW250
  FM130300 21010KT P6SM SCT220
  FM131700 34006KT P6SM SCT200
  FM131900 04012KT P6SM SCT080 BKN120
  FM140000 06008KT P6SM VCSH SCT050 BKN080
  PROB30 1403/1406 -SHRASN BKN050


Raw METAR
KDEN 130053Z 26004KT 10SM FEW250 12/M10 A3016 RMK AO2 SLP189 T01171100
KDEN 122353Z 00000KT 10SM FEW250 14/M10 A3016 RMK AO2 SLP184 T01441100 10206 20139 56009
KDEN 122253Z 35005KT 10SM FEW250 17/M11 A3016 RMK AO2 SLP189 T01721106

METAR Board
Radar Display
Forecast Discussion

FOR SITUATIONAL AWARENESS. NOT TO BE USED FOR FLIGHT PLANNING PURPOSES.